sensor_id;sensor_type;location;lat;lon;timestamp;temperature;humidity
13652;DHT22;6899;51.546;6.912;2024-03-22T00:01:55;9.70;99.90
13652;DHT22;6899;51.546;6.912;2024-03-22T00:04:22;9.70;99.90
13652;DHT22;6899;51.546;6.912;2024-03-22T00:06:49;9.80;99.90
13652;DHT22;6899;51.546;6.912;2024-03-22T00:09:16;9.90;99.90
13652;DHT22;6899;51.546;6.912;2024-03-22T00:11:43;9.90;99.90
13652;DHT22;6899;51.546;6.912;2024-03-22T00:14:11;9.90;99.90
13652;DHT22;6899;51.546;6.912;2024-03-22T00:16:37;9.90;99.90
13652;DHT22;6899;51.546;6.912;2024-03-22T00:19:05;10.00;99.90
13652;DHT22;6899;51.546;6.912;2024-03-22T00:21:31;10.00;99.90
13652;DHT22;6899;51.546;6.912;2024-03-22T00:23:58;10.00;99.90
13652;DHT22;6899;51.546;6.912;2024-03-22T00:26:24;10.00;99.90
13652;DHT22;6899;51.546;6.912;2024-03-22T00:28:51;10.00;99.90
13652;DHT22;6899;51.546;6.912;2024-03-22T00:31:17;10.00;99.90
13652;DHT22;6899;51.546;6.912;2024-03-22T00:33:43;10.00;99.90
13652;DHT22;6899;51.546;6.912;2024-03-22T00:36:11;10.00;99.90
13652;DHT22;6899;51.546;6.912;2024-03-22T00:38:38;10.00;99.90
13652;DHT22;6899;51.546;6.912;2024-03-22T00:41:04;10.10;99.90
13652;DHT22;6899;51.546;6.912;2024-03-22T00:43:30;10.10;99.90
13652;DHT22;6899;51.546;6.912;2024-03-22T00:45:56;10.10;99.90
13652;DHT22;6899;51.546;6.912;2024-03-22T00:48:24;10.10;99.90
13652;DHT22;6899;51.546;6.912;2024-03-22T00:50:50;10.20;99.90
13652;DHT22;6899;51.546;6.912;2024-03-22T00:53:17;10.20;99.90
13652;DHT22;6899;51.546;6.912;2024-03-22T00:55:44;10.20;99.90
13652;DHT22;6899;51.546;6.912;2024-03-22T00:58:11;10.20;99.90
13652;DHT22;6899;51.546;6.912;2024-03-22T01:00:38;10.20;99.90
13652;DHT22;6899;51.546;6.912;2024-03-22T01:03:05;10.30;99.90
13652;DHT22;6899;51.546;6.912;2024-03-22T01:05:32;10.30;99.90
13652;DHT22;6899;51.546;6.912;2024-03-22T01:07:58;10.20;99.90
13652;DHT22;6899;51.546;6.912;2024-03-22T01:10:26;10.20;99.90
13652;DHT22;6899;51.546;6.912;2024-03-22T01:12:52;10.20;99.90
13652;DHT22;6899;51.546;6.912;2024-03-22T01:15:19;10.20;99.90
13652;DHT22;6899;51.546;6.912;2024-03-22T01:17:45;10.20;99.90
13652;DHT22;6899;51.546;6.912;2024-03-22T01:20:12;10.20;99.90
13652;DHT22;6899;51.546;6.912;2024-03-22T01:22:37;10.20;99.90
13652;DHT22;6899;51.546;6.912;2024-03-22T01:25:06;10.20;99.90
13652;DHT22;6899;51.546;6.912;2024-03-22T01:27:33;10.20;99.90
13652;DHT22;6899;51.546;6.912;2024-03-22T01:30:00;10.20;99.90
13652;DHT22;6899;51.546;6.912;2024-03-22T01:32:26;10.20;99.90
13652;DHT22;6899;51.546;6.912;2024-03-22T01:34:53;10.20;99.90
13652;DHT22;6899;51.546;6.912;2024-03-22T01:37:18;10.30;99.90
13652;DHT22;6899;51.546;6.912;2024-03-22T01:39:46;10.20;99.90
13652;DHT22;6899;51.546;6.912;2024-03-22T01:42:12;10.30;99.90
13652;DHT22;6899;51.546;6.912;2024-03-22T01:44:40;10.20;99.90
13652;DHT22;6899;51.546;6.912;2024-03-22T01:47:07;10.20;99.90
13652;DHT22;6899;51.546;6.912;2024-03-22T01:49:34;10.20;99.90
13652;DHT22;6899;51.546;6.912;2024-03-22T01:52:00;10.30;99.90
13652;DHT22;6899;51.546;6.912;2024-03-22T01:54:27;10.30;99.90
13652;DHT22;6899;51.546;6.912;2024-03-22T01:56:53;10.30;99.90
13652;DHT22;6899;51.546;6.912;2024-03-22T01:59:20;10.30;99.90
13652;DHT22;6899;51.546;6.912;2024-03-22T02:01:48;10.30;99.90
13652;DHT22;6899;51.546;6.912;2024-03-22T02:04:15;10.30;99.90
13652;DHT22;6899;51.546;6.912;2024-03-22T02:06:41;10.30;99.90
13652;DHT22;6899;51.546;6.912;2024-03-22T02:09:07;10.30;99.90
13652;DHT22;6899;51.546;6.912;2024-03-22T02:11:36;10.30;99.90
13652;DHT22;6899;51.546;6.912;2024-03-22T02:14:03;10.30;99.90
13652;DHT22;6899;51.546;6.912;2024-03-22T02:16:29;10.40;99.90
13652;DHT22;6899;51.546;6.912;2024-03-22T02:18:57;10.40;99.90
13652;DHT22;6899;51.546;6.912;2024-03-22T02:21:23;10.40;99.90
13652;DHT22;6899;51.546;6.912;2024-03-22T02:23:51;10.30;99.90
13652;DHT22;6899;51.546;6.912;2024-03-22T02:26:17;10.30;99.90
13652;DHT22;6899;51.546;6.912;2024-03-22T02:28:44;10.40;99.90
13652;DHT22;6899;51.546;6.912;2024-03-22T02:31:09;10.40;99.90
13652;DHT22;6899;51.546;6.912;2024-03-22T02:33:36;10.40;99.90
13652;DHT22;6899;51.546;6.912;2024-03-22T02:36:02;10.40;99.90
13652;DHT22;6899;51.546;6.912;2024-03-22T02:38:29;10.50;99.90
13652;DHT22;6899;51.546;6.912;2024-03-22T02:40:58;10.50;99.90
13652;DHT22;6899;51.546;6.912;2024-03-22T02:43:25;10.50;99.90
13652;DHT22;6899;51.546;6.912;2024-03-22T02:45:51;10.60;99.90
13652;DHT22;6899;51.546;6.912;2024-03-22T02:48:17;10.50;99.90
13652;DHT22;6899;51.546;6.912;2024-03-22T02:50:43;10.50;99.90
13652;DHT22;6899;51.546;6.912;2024-03-22T02:53:10;10.50;99.90
13652;DHT22;6899;51.546;6.912;2024-03-22T02:55:38;10.50;99.90
13652;DHT22;6899;51.546;6.912;2024-03-22T02:58:05;10.60;99.90
13652;DHT22;6899;51.546;6.912;2024-03-22T03:00:35;10.40;99.90
13652;DHT22;6899;51.546;6.912;2024-03-22T03:03:01;10.40;99.90
13652;DHT22;6899;51.546;6.912;2024-03-22T03:05:27;10.40;99.90
13652;DHT22;6899;51.546;6.912;2024-03-22T03:07:53;10.30;99.90
13652;DHT22;6899;51.546;6.912;2024-03-22T03:10:20;10.30;99.90
13652;DHT22;6899;51.546;6.912;2024-03-22T03:12:46;10.20;99.90
13652;DHT22;6899;51.546;6.912;2024-03-22T03:15:15;10.10;99.90
13652;DHT22;6899;51.546;6.912;2024-03-22T03:17:41;10.00;99.90
13652;DHT22;6899;51.546;6.912;2024-03-22T03:20:08;10.00;99.90
13652;DHT22;6899;51.546;6.912;2024-03-22T03:22:35;10.00;99.90
13652;DHT22;6899;51.546;6.912;2024-03-22T03:25:03;10.00;99.90
13652;DHT22;6899;51.546;6.912;2024-03-22T03:27:29;10.00;99.90
13652;DHT22;6899;51.546;6.912;2024-03-22T03:29:56;9.90;99.90
13652;DHT22;6899;51.546;6.912;2024-03-22T03:32:23;9.80;99.90
13652;DHT22;6899;51.546;6.912;2024-03-22T03:34:51;9.80;99.90
13652;DHT22;6899;51.546;6.912;2024-03-22T03:37:16;9.80;99.90
13652;DHT22;6899;51.546;6.912;2024-03-22T03:39:43;9.80;99.90
13652;DHT22;6899;51.546;6.912;2024-03-22T03:42:09;9.80;99.90
13652;DHT22;6899;51.546;6.912;2024-03-22T03:44:36;9.70;99.90
13652;DHT22;6899;51.546;6.912;2024-03-22T03:47:05;9.80;99.90
13652;DHT22;6899;51.546;6.912;2024-03-22T03:49:33;9.70;99.90
13652;DHT22;6899;51.546;6.912;2024-03-22T03:51:59;9.70;99.90
13652;DHT22;6899;51.546;6.912;2024-03-22T03:54:26;9.70;99.90
13652;DHT22;6899;51.546;6.912;2024-03-22T03:56:51;9.70;99.90
13652;DHT22;6899;51.546;6.912;2024-03-22T03:59:18;9.80;99.90
13652;DHT22;6899;51.546;6.912;2024-03-22T04:01:44;10.40;99.90
13652;DHT22;6899;51.546;6.912;2024-03-22T04:04:12;9.70;99.90
13652;DHT22;6899;51.546;6.912;2024-03-22T04:06:39;9.70;99.90
13652;DHT22;6899;51.546;6.912;2024-03-22T04:09:06;9.70;99.90
13652;DHT22;6899;51.546;6.912;2024-03-22T04:11:32;9.70;99.90
13652;DHT22;6899;51.546;6.912;2024-03-22T04:13:59;9.60;99.90
13652;DHT22;6899;51.546;6.912;2024-03-22T04:16:25;9.60;99.90
13652;DHT22;6899;51.546;6.912;2024-03-22T04:18:51;9.70;99.90
13652;DHT22;6899;51.546;6.912;2024-03-22T04:21:17;9.70;99.90
13652;DHT22;6899;51.546;6.912;2024-03-22T04:23:45;9.80;99.90
13652;DHT22;6899;51.546;6.912;2024-03-22T04:26:11;9.80;99.90
13652;DHT22;6899;51.546;6.912;2024-03-22T04:28:38;9.80;99.90
13652;DHT22;6899;51.546;6.912;2024-03-22T04:31:06;9.80;99.90
13652;DHT22;6899;51.546;6.912;2024-03-22T04:33:33;9.80;99.90
13652;DHT22;6899;51.546;6.912;2024-03-22T04:36:00;9.80;99.90
13652;DHT22;6899;51.546;6.912;2024-03-22T04:38:27;9.80;99.90
13652;DHT22;6899;51.546;6.912;2024-03-22T04:40:56;9.90;99.90
13652;DHT22;6899;51.546;6.912;2024-03-22T04:43:23;9.90;99.90
13652;DHT22;6899;51.546;6.912;2024-03-22T04:45:51;10.00;99.90
13652;DHT22;6899;51.546;6.912;2024-03-22T04:48:18;9.80;99.90
13652;DHT22;6899;51.546;6.912;2024-03-22T04:50:46;9.80;99.90
13652;DHT22;6899;51.546;6.912;2024-03-22T04:53:13;9.90;99.90
13652;DHT22;6899;51.546;6.912;2024-03-22T04:55:40;9.80;99.90
13652;DHT22;6899;51.546;6.912;2024-03-22T04:58:12;9.70;99.90
13652;DHT22;6899;51.546;6.912;2024-03-22T05:00:39;9.70;99.90
13652;DHT22;6899;51.546;6.912;2024-03-22T05:03:05;9.70;99.90
13652;DHT22;6899;51.546;6.912;2024-03-22T05:05:32;9.70;99.90
13652;DHT22;6899;51.546;6.912;2024-03-22T05:07:57;9.70;99.90
13652;DHT22;6899;51.546;6.912;2024-03-22T05:10:24;9.60;99.90
13652;DHT22;6899;51.546;6.912;2024-03-22T05:12:50;9.60;99.90
13652;DHT22;6899;51.546;6.912;2024-03-22T05:15:18;9.50;99.90
13652;DHT22;6899;51.546;6.912;2024-03-22T05:17:44;9.50;99.90
13652;DHT22;6899;51.546;6.912;2024-03-22T05:20:11;9.40;99.90
13652;DHT22;6899;51.546;6.912;2024-03-22T05:22:37;9.50;99.90
13652;DHT22;6899;51.546;6.912;2024-03-22T05:25:05;9.60;99.90
13652;DHT22;6899;51.546;6.912;2024-03-22T05:27:31;9.50;99.90
13652;DHT22;6899;51.546;6.912;2024-03-22T05:29:58;9.50;99.90
13652;DHT22;6899;51.546;6.912;2024-03-22T05:32:25;9.50;99.90
13652;DHT22;6899;51.546;6.912;2024-03-22T05:34:52;9.50;99.90
13652;DHT22;6899;51.546;6.912;2024-03-22T05:37:18;9.50;99.90
13652;DHT22;6899;51.546;6.912;2024-03-22T05:39:44;9.60;99.90
13652;DHT22;6899;51.546;6.912;2024-03-22T05:42:10;9.50;99.90
13652;DHT22;6899;51.546;6.912;2024-03-22T05:44:37;9.60;99.90
13652;DHT22;6899;51.546;6.912;2024-03-22T05:47:03;9.70;99.90
13652;DHT22;6899;51.546;6.912;2024-03-22T05:49:31;9.80;99.90
13652;DHT22;6899;51.546;6.912;2024-03-22T05:51:57;10.00;99.90
13652;DHT22;6899;51.546;6.912;2024-03-22T05:54:24;10.00;99.90
13652;DHT22;6899;51.546;6.912;2024-03-22T05:56:50;10.20;99.90
13652;DHT22;6899;51.546;6.912;2024-03-22T05:59:17;10.20;99.90
13652;DHT22;6899;51.546;6.912;2024-03-22T06:01:43;10.30;99.90
13652;DHT22;6899;51.546;6.912;2024-03-22T06:04:10;10.40;99.90
13652;DHT22;6899;51.546;6.912;2024-03-22T06:06:37;10.40;99.90
13652;DHT22;6899;51.546;6.912;2024-03-22T06:09:03;10.50;99.90
13652;DHT22;6899;51.546;6.912;2024-03-22T06:11:30;10.60;99.90
13652;DHT22;6899;51.546;6.912;2024-03-22T06:13:57;10.70;99.90
13652;DHT22;6899;51.546;6.912;2024-03-22T06:16:22;10.80;99.90
13652;DHT22;6899;51.546;6.912;2024-03-22T06:18:49;10.70;99.90
13652;DHT22;6899;51.546;6.912;2024-03-22T06:21:15;10.90;99.90
13652;DHT22;6899;51.546;6.912;2024-03-22T06:23:48;10.90;99.90
13652;DHT22;6899;51.546;6.912;2024-03-22T06:26:14;11.00;99.90
13652;DHT22;6899;51.546;6.912;2024-03-22T06:28:41;11.10;99.90
13652;DHT22;6899;51.546;6.912;2024-03-22T06:31:07;11.10;99.90
13652;DHT22;6899;51.546;6.912;2024-03-22T06:33:34;11.20;99.90
13652;DHT22;6899;51.546;6.912;2024-03-22T06:36:00;11.30;99.90
13652;DHT22;6899;51.546;6.912;2024-03-22T06:38:27;11.40;99.90
13652;DHT22;6899;51.546;6.912;2024-03-22T06:40:54;11.40;99.90
13652;DHT22;6899;51.546;6.912;2024-03-22T06:43:21;11.50;99.90
13652;DHT22;6899;51.546;6.912;2024-03-22T06:45:46;11.70;99.90
13652;DHT22;6899;51.546;6.912;2024-03-22T06:48:13;11.80;99.90
13652;DHT22;6899;51.546;6.912;2024-03-22T06:50:41;11.80;99.90
13652;DHT22;6899;51.546;6.912;2024-03-22T06:53:07;11.80;99.90
13652;DHT22;6899;51.546;6.912;2024-03-22T06:55:35;11.90;99.90
13652;DHT22;6899;51.546;6.912;2024-03-22T06:58:03;12.10;99.90
13652;DHT22;6899;51.546;6.912;2024-03-22T07:00:29;12.10;99.90
13652;DHT22;6899;51.546;6.912;2024-03-22T07:02:56;12.40;99.90
13652;DHT22;6899;51.546;6.912;2024-03-22T07:05:22;12.40;99.90
13652;DHT22;6899;51.546;6.912;2024-03-22T07:07:49;12.60;99.90
13652;DHT22;6899;51.546;6.912;2024-03-22T07:10:15;12.70;99.90
13652;DHT22;6899;51.546;6.912;2024-03-22T07:12:42;13.00;99.90
13652;DHT22;6899;51.546;6.912;2024-03-22T07:15:10;13.20;99.90
13652;DHT22;6899;51.546;6.912;2024-03-22T07:17:37;13.40;99.90
13652;DHT22;6899;51.546;6.912;2024-03-22T07:20:03;13.40;99.90
13652;DHT22;6899;51.546;6.912;2024-03-22T07:22:30;13.20;99.90
13652;DHT22;6899;51.546;6.912;2024-03-22T07:24:56;13.30;99.90
13652;DHT22;6899;51.546;6.912;2024-03-22T07:27:22;13.30;99.90
13652;DHT22;6899;51.546;6.912;2024-03-22T07:29:48;13.30;99.90
13652;DHT22;6899;51.546;6.912;2024-03-22T07:32:16;13.30;99.90
13652;DHT22;6899;51.546;6.912;2024-03-22T07:34:45;13.30;99.90
13652;DHT22;6899;51.546;6.912;2024-03-22T07:37:12;13.30;99.90
13652;DHT22;6899;51.546;6.912;2024-03-22T07:39:38;13.40;99.90
13652;DHT22;6899;51.546;6.912;2024-03-22T07:42:05;13.60;99.90
13652;DHT22;6899;51.546;6.912;2024-03-22T07:44:31;13.60;99.90
13652;DHT22;6899;51.546;6.912;2024-03-22T07:46:58;13.70;99.90
13652;DHT22;6899;51.546;6.912;2024-03-22T07:49:25;13.60;99.90
13652;DHT22;6899;51.546;6.912;2024-03-22T07:51:52;13.60;99.90
13652;DHT22;6899;51.546;6.912;2024-03-22T07:54:18;13.90;99.90
13652;DHT22;6899;51.546;6.912;2024-03-22T07:56:45;13.90;99.90
13652;DHT22;6899;51.546;6.912;2024-03-22T07:59:11;13.90;99.90
13652;DHT22;6899;51.546;6.912;2024-03-22T08:01:38;13.90;99.90
13652;DHT22;6899;51.546;6.912;2024-03-22T08:04:04;13.90;99.90
13652;DHT22;6899;51.546;6.912;2024-03-22T08:06:33;13.70;99.90
13652;DHT22;6899;51.546;6.912;2024-03-22T08:08:58;13.80;99.90
13652;DHT22;6899;51.546;6.912;2024-03-22T08:11:27;13.80;99.90
13652;DHT22;6899;51.546;6.912;2024-03-22T08:13:54;13.80;99.90
13652;DHT22;6899;51.546;6.912;2024-03-22T08:16:27;13.60;99.90
13652;DHT22;6899;51.546;6.912;2024-03-22T08:18:53;13.50;99.90
13652;DHT22;6899;51.546;6.912;2024-03-22T08:21:19;13.40;99.90
13652;DHT22;6899;51.546;6.912;2024-03-22T08:23:47;13.70;99.90
13652;DHT22;6899;51.546;6.912;2024-03-22T08:26:13;13.70;99.90
13652;DHT22;6899;51.546;6.912;2024-03-22T08:28:39;13.90;99.90
13652;DHT22;6899;51.546;6.912;2024-03-22T08:31:06;14.10;99.90
13652;DHT22;6899;51.546;6.912;2024-03-22T08:33:32;14.10;99.90
13652;DHT22;6899;51.546;6.912;2024-03-22T08:35:58;14.20;99.90
13652;DHT22;6899;51.546;6.912;2024-03-22T08:38:25;14.30;99.90
13652;DHT22;6899;51.546;6.912;2024-03-22T08:40:54;14.50;99.90
13652;DHT22;6899;51.546;6.912;2024-03-22T08:43:20;14.70;99.90
13652;DHT22;6899;51.546;6.912;2024-03-22T08:45:48;14.90;99.90
13652;DHT22;6899;51.546;6.912;2024-03-22T08:48:14;14.90;99.90
13652;DHT22;6899;51.546;6.912;2024-03-22T08:50:42;14.70;99.90
13652;DHT22;6899;51.546;6.912;2024-03-22T08:53:08;14.40;99.90
13652;DHT22;6899;51.546;6.912;2024-03-22T08:55:34;14.80;99.90
13652;DHT22;6899;51.546;6.912;2024-03-22T08:58:02;15.00;99.90
13652;DHT22;6899;51.546;6.912;2024-03-22T09:00:29;15.10;99.90
13652;DHT22;6899;51.546;6.912;2024-03-22T09:02:55;15.20;99.90
13652;DHT22;6899;51.546;6.912;2024-03-22T09:05:22;15.50;99.90
13652;DHT22;6899;51.546;6.912;2024-03-22T09:07:47;15.70;99.90
13652;DHT22;6899;51.546;6.912;2024-03-22T09:10:15;16.00;99.90
13652;DHT22;6899;51.546;6.912;2024-03-22T09:12:41;16.00;99.90
13652;DHT22;6899;51.546;6.912;2024-03-22T09:15:10;15.80;99.90
13652;DHT22;6899;51.546;6.912;2024-03-22T09:17:35;15.90;99.90
13652;DHT22;6899;51.546;6.912;2024-03-22T09:20:02;15.90;99.90
13652;DHT22;6899;51.546;6.912;2024-03-22T09:22:29;16.00;99.90
13652;DHT22;6899;51.546;6.912;2024-03-22T09:24:58;16.00;99.90
13652;DHT22;6899;51.546;6.912;2024-03-22T09:27:24;16.10;99.90
13652;DHT22;6899;51.546;6.912;2024-03-22T09:29:50;16.30;99.90
13652;DHT22;6899;51.546;6.912;2024-03-22T09:32:19;15.90;99.90
13652;DHT22;6899;51.546;6.912;2024-03-22T09:34:48;15.30;99.90
13652;DHT22;6899;51.546;6.912;2024-03-22T09:37:15;16.00;99.90
13652;DHT22;6899;51.546;6.912;2024-03-22T09:39:41;15.70;99.90
13652;DHT22;6899;51.546;6.912;2024-03-22T09:42:08;15.70;99.90
13652;DHT22;6899;51.546;6.912;2024-03-22T09:44:37;15.80;99.90
13652;DHT22;6899;51.546;6.912;2024-03-22T09:47:06;15.70;99.90
13652;DHT22;6899;51.546;6.912;2024-03-22T09:49:34;15.70;99.90
13652;DHT22;6899;51.546;6.912;2024-03-22T09:52:02;16.20;99.90
13652;DHT22;6899;51.546;6.912;2024-03-22T09:54:30;16.40;99.90
13652;DHT22;6899;51.546;6.912;2024-03-22T09:56:57;16.20;99.90
13652;DHT22;6899;51.546;6.912;2024-03-22T09:59:24;16.40;99.90
13652;DHT22;6899;51.546;6.912;2024-03-22T10:01:52;16.00;99.90
13652;DHT22;6899;51.546;6.912;2024-03-22T10:04:18;16.40;99.90
13652;DHT22;6899;51.546;6.912;2024-03-22T10:06:47;16.50;99.90
13652;DHT22;6899;51.546;6.912;2024-03-22T10:09:13;17.20;99.90
13652;DHT22;6899;51.546;6.912;2024-03-22T10:11:40;17.60;99.90
13652;DHT22;6899;51.546;6.912;2024-03-22T10:14:05;17.80;99.90
13652;DHT22;6899;51.546;6.912;2024-03-22T10:16:34;17.80;99.90
13652;DHT22;6899;51.546;6.912;2024-03-22T10:19:00;17.80;99.90
13652;DHT22;6899;51.546;6.912;2024-03-22T10:21:26;17.60;99.90
13652;DHT22;6899;51.546;6.912;2024-03-22T10:23:55;17.20;99.90
13652;DHT22;6899;51.546;6.912;2024-03-22T10:26:22;16.80;99.90
13652;DHT22;6899;51.546;6.912;2024-03-22T10:28:48;16.40;99.90
13652;DHT22;6899;51.546;6.912;2024-03-22T10:31:15;16.40;99.90
13652;DHT22;6899;51.546;6.912;2024-03-22T10:33:41;16.20;99.90
13652;DHT22;6899;51.546;6.912;2024-03-22T10:36:08;15.90;99.90
13652;DHT22;6899;51.546;6.912;2024-03-22T10:38:37;15.70;99.90
13652;DHT22;6899;51.546;6.912;2024-03-22T10:41:06;16.00;99.90
13652;DHT22;6899;51.546;6.912;2024-03-22T10:43:32;16.10;99.90
13652;DHT22;6899;51.546;6.912;2024-03-22T10:46:01;16.40;99.90
13652;DHT22;6899;51.546;6.912;2024-03-22T10:48:30;16.20;99.90
13652;DHT22;6899;51.546;6.912;2024-03-22T10:50:59;16.40;99.90
13652;DHT22;6899;51.546;6.912;2024-03-22T10:53:27;16.40;99.90
13652;DHT22;6899;51.546;6.912;2024-03-22T10:55:56;15.80;99.90
13652;DHT22;6899;51.546;6.912;2024-03-22T10:58:27;16.10;99.90
13652;DHT22;6899;51.546;6.912;2024-03-22T11:00:54;16.40;99.90
13652;DHT22;6899;51.546;6.912;2024-03-22T11:03:21;16.40;99.90
13652;DHT22;6899;51.546;6.912;2024-03-22T11:05:50;16.30;99.90
13652;DHT22;6899;51.546;6.912;2024-03-22T11:08:23;16.40;99.90
13652;DHT22;6899;51.546;6.912;2024-03-22T11:10:50;16.30;99.90
13652;DHT22;6899;51.546;6.912;2024-03-22T11:13:17;16.40;99.90
13652;DHT22;6899;51.546;6.912;2024-03-22T11:15:47;16.10;99.90
13652;DHT22;6899;51.546;6.912;2024-03-22T11:18:13;15.70;99.90
13652;DHT22;6899;51.546;6.912;2024-03-22T11:20:41;15.50;99.90
13652;DHT22;6899;51.546;6.912;2024-03-22T11:23:07;15.60;99.90
13652;DHT22;6899;51.546;6.912;2024-03-22T11:25:35;15.80;99.90
13652;DHT22;6899;51.546;6.912;2024-03-22T11:28:01;15.80;99.90
13652;DHT22;6899;51.546;6.912;2024-03-22T11:30:28;15.30;99.90
13652;DHT22;6899;51.546;6.912;2024-03-22T11:32:56;14.80;99.90
13652;DHT22;6899;51.546;6.912;2024-03-22T11:35:23;14.50;99.90
13652;DHT22;6899;51.546;6.912;2024-03-22T11:37:50;14.40;99.90
13652;DHT22;6899;51.546;6.912;2024-03-22T11:40:17;14.10;99.90
13652;DHT22;6899;51.546;6.912;2024-03-22T11:42:47;14.10;99.90
13652;DHT22;6899;51.546;6.912;2024-03-22T11:45:17;13.90;99.90
13652;DHT22;6899;51.546;6.912;2024-03-22T11:47:43;13.70;99.90
13652;DHT22;6899;51.546;6.912;2024-03-22T11:50:11;13.60;99.90
13652;DHT22;6899;51.546;6.912;2024-03-22T11:52:40;13.60;99.90
13652;DHT22;6899;51.546;6.912;2024-03-22T11:55:07;13.80;99.90
13652;DHT22;6899;51.546;6.912;2024-03-22T11:57:33;13.80;99.90
13652;DHT22;6899;51.546;6.912;2024-03-22T12:00:01;13.80;99.90
13652;DHT22;6899;51.546;6.912;2024-03-22T12:02:28;13.90;99.90
13652;DHT22;6899;51.546;6.912;2024-03-22T12:04:58;13.80;99.90
13652;DHT22;6899;51.546;6.912;2024-03-22T12:07:25;13.70;99.90
13652;DHT22;6899;51.546;6.912;2024-03-22T12:09:51;13.50;99.90
13652;DHT22;6899;51.546;6.912;2024-03-22T12:12:21;13.20;99.90
13652;DHT22;6899;51.546;6.912;2024-03-22T12:14:48;13.00;99.90
13652;DHT22;6899;51.546;6.912;2024-03-22T12:17:16;12.90;99.90
13652;DHT22;6899;51.546;6.912;2024-03-22T12:19:42;12.90;99.90
13652;DHT22;6899;51.546;6.912;2024-03-22T12:22:08;12.90;99.90
13652;DHT22;6899;51.546;6.912;2024-03-22T12:24:36;12.90;99.90
13652;DHT22;6899;51.546;6.912;2024-03-22T12:27:02;12.90;99.90
13652;DHT22;6899;51.546;6.912;2024-03-22T12:29:32;12.80;99.90
13652;DHT22;6899;51.546;6.912;2024-03-22T12:31:58;12.80;99.90
13652;DHT22;6899;51.546;6.912;2024-03-22T12:34:27;12.70;99.90
13652;DHT22;6899;51.546;6.912;2024-03-22T12:36:52;12.60;99.90
13652;DHT22;6899;51.546;6.912;2024-03-22T12:39:19;12.70;99.90
13652;DHT22;6899;51.546;6.912;2024-03-22T12:41:46;12.60;99.90
13652;DHT22;6899;51.546;6.912;2024-03-22T12:44:13;12.60;99.90
13652;DHT22;6899;51.546;6.912;2024-03-22T12:46:39;12.60;99.90
13652;DHT22;6899;51.546;6.912;2024-03-22T12:49:07;12.60;99.90
13652;DHT22;6899;51.546;6.912;2024-03-22T12:51:35;12.50;99.90
13652;DHT22;6899;51.546;6.912;2024-03-22T12:54:02;12.50;99.90
13652;DHT22;6899;51.546;6.912;2024-03-22T12:56:28;12.40;99.90
13652;DHT22;6899;51.546;6.912;2024-03-22T12:58:56;12.50;99.90
13652;DHT22;6899;51.546;6.912;2024-03-22T13:01:22;12.90;99.90
13652;DHT22;6899;51.546;6.912;2024-03-22T13:03:49;12.50;99.90
13652;DHT22;6899;51.546;6.912;2024-03-22T13:06:14;12.40;99.90
13652;DHT22;6899;51.546;6.912;2024-03-22T13:08:41;12.40;99.90
13652;DHT22;6899;51.546;6.912;2024-03-22T13:11:07;12.30;99.90
13652;DHT22;6899;51.546;6.912;2024-03-22T13:13:35;12.40;99.90
13652;DHT22;6899;51.546;6.912;2024-03-22T13:16:02;12.40;99.90
13652;DHT22;6899;51.546;6.912;2024-03-22T13:18:29;12.30;99.90
13652;DHT22;6899;51.546;6.912;2024-03-22T13:20:55;12.40;99.90
13652;DHT22;6899;51.546;6.912;2024-03-22T13:23:22;12.40;99.90
13652;DHT22;6899;51.546;6.912;2024-03-22T13:25:48;12.40;99.90
13652;DHT22;6899;51.546;6.912;2024-03-22T13:28:14;12.40;99.90
13652;DHT22;6899;51.546;6.912;2024-03-22T13:30:45;12.50;99.90
13652;DHT22;6899;51.546;6.912;2024-03-22T13:33:13;12.50;99.90
13652;DHT22;6899;51.546;6.912;2024-03-22T13:35:39;12.30;99.90
13652;DHT22;6899;51.546;6.912;2024-03-22T13:38:06;12.20;99.90
13652;DHT22;6899;51.546;6.912;2024-03-22T13:40:38;12.00;99.90
13652;DHT22;6899;51.546;6.912;2024-03-22T13:43:06;12.00;99.90
13652;DHT22;6899;51.546;6.912;2024-03-22T13:45:32;12.10;99.90
13652;DHT22;6899;51.546;6.912;2024-03-22T13:47:59;12.20;99.90
13652;DHT22;6899;51.546;6.912;2024-03-22T13:50:26;12.10;99.90
13652;DHT22;6899;51.546;6.912;2024-03-22T13:52:52;12.00;99.90
13652;DHT22;6899;51.546;6.912;2024-03-22T13:55:18;12.00;99.90
13652;DHT22;6899;51.546;6.912;2024-03-22T13:57:45;12.00;99.90
13652;DHT22;6899;51.546;6.912;2024-03-22T14:00:12;12.00;99.90
13652;DHT22;6899;51.546;6.912;2024-03-22T14:02:40;12.00;99.90
13652;DHT22;6899;51.546;6.912;2024-03-22T14:05:06;11.90;99.90
13652;DHT22;6899;51.546;6.912;2024-03-22T14:07:35;11.90;99.90
13652;DHT22;6899;51.546;6.912;2024-03-22T14:10:01;11.80;99.90
13652;DHT22;6899;51.546;6.912;2024-03-22T14:12:28;11.90;99.90
13652;DHT22;6899;51.546;6.912;2024-03-22T14:14:54;11.90;99.90
13652;DHT22;6899;51.546;6.912;2024-03-22T14:17:20;11.80;99.90
13652;DHT22;6899;51.546;6.912;2024-03-22T14:19:46;11.80;99.90
13652;DHT22;6899;51.546;6.912;2024-03-22T14:22:13;11.90;99.90
13652;DHT22;6899;51.546;6.912;2024-03-22T14:24:41;11.90;99.90
13652;DHT22;6899;51.546;6.912;2024-03-22T14:27:08;11.90;99.90
13652;DHT22;6899;51.546;6.912;2024-03-22T14:29:33;11.70;99.90
13652;DHT22;6899;51.546;6.912;2024-03-22T14:32:00;11.60;99.90
13652;DHT22;6899;51.546;6.912;2024-03-22T14:34:26;11.30;99.90
13652;DHT22;6899;51.546;6.912;2024-03-22T14:36:53;11.10;1.00
13652;DHT22;6899;51.546;6.912;2024-03-22T14:39:19;10.90;99.90
13652;DHT22;6899;51.546;6.912;2024-03-22T14:41:47;10.80;1.00
13652;DHT22;6899;51.546;6.912;2024-03-22T14:44:13;10.80;99.90
13652;DHT22;6899;51.546;6.912;2024-03-22T14:46:40;10.70;99.90
13652;DHT22;6899;51.546;6.912;2024-03-22T14:49:06;10.70;1.00
13652;DHT22;6899;51.546;6.912;2024-03-22T14:51:33;10.60;99.90
13652;DHT22;6899;51.546;6.912;2024-03-22T14:53:58;10.60;99.90
13652;DHT22;6899;51.546;6.912;2024-03-22T14:56:25;10.60;99.90
13652;DHT22;6899;51.546;6.912;2024-03-22T14:58:52;10.50;99.90
13652;DHT22;6899;51.546;6.912;2024-03-22T15:01:19;10.50;99.90
13652;DHT22;6899;51.546;6.912;2024-03-22T15:03:45;10.50;99.90
13652;DHT22;6899;51.546;6.912;2024-03-22T15:06:12;10.50;99.90
13652;DHT22;6899;51.546;6.912;2024-03-22T15:08:37;10.50;99.90
13652;DHT22;6899;51.546;6.912;2024-03-22T15:11:05;10.50;99.90
13652;DHT22;6899;51.546;6.912;2024-03-22T15:13:31;10.50;99.90
13652;DHT22;6899;51.546;6.912;2024-03-22T15:15:59;10.50;99.90
13652;DHT22;6899;51.546;6.912;2024-03-22T15:18:25;10.50;99.90
13652;DHT22;6899;51.546;6.912;2024-03-22T15:20:53;10.50;99.90
13652;DHT22;6899;51.546;6.912;2024-03-22T15:23:19;10.60;99.90
13652;DHT22;6899;51.546;6.912;2024-03-22T15:25:46;10.60;99.90
13652;DHT22;6899;51.546;6.912;2024-03-22T15:28:12;10.50;99.90
13652;DHT22;6899;51.546;6.912;2024-03-22T15:30:39;10.50;99.90
13652;DHT22;6899;51.546;6.912;2024-03-22T15:33:08;10.50;99.90
13652;DHT22;6899;51.546;6.912;2024-03-22T15:35:35;10.40;99.90
13652;DHT22;6899;51.546;6.912;2024-03-22T15:38:02;10.40;99.90
13652;DHT22;6899;51.546;6.912;2024-03-22T15:40:29;10.50;99.90
13652;DHT22;6899;51.546;6.912;2024-03-22T15:42:55;10.50;99.90
13652;DHT22;6899;51.546;6.912;2024-03-22T15:45:21;10.70;99.90
13652;DHT22;6899;51.546;6.912;2024-03-22T15:47:48;10.50;99.90